createdAt,value
2022-11-09T00:00:10.776Z,9.55
2022-11-09T00:02:33.246Z,9.59
2022-11-09T00:04:55.761Z,9.50
2022-11-09T00:07:18.291Z,9.45
2022-11-09T00:09:41.156Z,9.43
2022-11-09T00:12:04.937Z,9.40
2022-11-09T00:14:27.508Z,9.39
2022-11-09T00:16:50.002Z,9.28
2022-11-09T00:19:15.741Z,9.31
2022-11-09T00:21:38.514Z,9.28
2022-11-09T00:24:01.144Z,9.29
2022-11-09T00:26:23.921Z,9.28
2022-11-09T00:28:46.898Z,9.25
2022-11-09T00:31:15.406Z,9.22
2022-11-09T00:33:38.311Z,9.22
2022-11-09T00:36:08.121Z,9.15
2022-11-09T00:38:30.782Z,9.15
2022-11-09T00:40:53.753Z,9.12
2022-11-09T00:43:17.068Z,9.15
2022-11-09T00:45:42.322Z,9.14
2022-11-09T00:48:05.269Z,9.15
2022-11-09T00:50:27.898Z,9.27
2022-11-09T00:52:50.890Z,9.29
2022-11-09T00:55:13.569Z,9.35
2022-11-09T00:57:36.141Z,9.24
2022-11-09T00:59:59.115Z,9.24
2022-11-09T01:02:21.768Z,9.21
2022-11-09T01:04:45.259Z,9.21
2022-11-09T01:07:08.680Z,9.18
2022-11-09T01:09:31.305Z,9.12
2022-11-09T01:11:53.782Z,9.19
2022-11-09T01:14:18.290Z,9.15
2022-11-09T01:16:40.883Z,9.12
2022-11-09T01:19:03.480Z,9.12
2022-11-09T01:21:27.341Z,9.08
2022-11-09T01:23:49.893Z,9.11
2022-11-09T01:26:14.264Z,9.11
2022-11-09T01:28:37.222Z,9.10
2022-11-09T01:31:05.038Z,9.08
2022-11-09T01:33:28.191Z,9.04
2022-11-09T01:35:50.708Z,9.00
2022-11-09T01:38:13.324Z,9.03
2022-11-09T01:40:38.247Z,9.04
2022-11-09T01:43:21.116Z,9.04
2022-11-09T01:46:06.565Z,9.03
2022-11-09T01:48:53.694Z,9.01
2022-11-09T01:51:31.815Z,8.96
2022-11-09T01:54:08.525Z,8.88
2022-11-09T01:56:32.854Z,8.92
2022-11-09T01:59:00.711Z,8.81
2022-11-09T02:01:25.808Z,8.74
2022-11-09T02:03:57.642Z,8.77
2022-11-09T02:06:22.952Z,8.79
2022-11-09T02:08:48.372Z,8.79
2022-11-09T02:11:17.570Z,8.73
2022-11-09T02:13:44.459Z,8.83
2022-11-09T02:16:10.335Z,8.80
2022-11-09T02:18:34.420Z,8.81
2022-11-09T02:20:58.287Z,8.79
2022-11-09T02:23:22.383Z,8.71
2022-11-09T02:25:54.612Z,8.62
2022-11-09T02:28:18.193Z,8.59
2022-11-09T02:30:41.849Z,8.62
2022-11-09T02:33:04.714Z,8.62
2022-11-09T02:35:27.398Z,8.56
2022-11-09T02:37:50.752Z,8.53
2022-11-09T02:40:20.703Z,8.50
2022-11-09T02:42:43.956Z,8.49
2022-11-09T02:45:06.913Z,8.46
2022-11-09T02:47:29.863Z,8.50
2022-11-09T02:49:53.316Z,8.50
2022-11-09T02:52:16.655Z,8.56
2022-11-09T02:54:40.945Z,8.57
2022-11-09T02:57:03.542Z,8.57
2022-11-09T02:59:26.227Z,8.59
2022-11-09T03:01:48.945Z,8.57
2022-11-09T03:04:11.506Z,8.64
2022-11-09T03:06:34.780Z,8.73
2022-11-09T03:09:03.839Z,8.67
2022-11-09T03:11:26.926Z,8.63
2022-11-09T03:13:49.605Z,8.59
2022-11-09T03:16:13.933Z,8.67
2022-11-09T03:18:36.661Z,8.79
2022-11-09T03:21:04.043Z,8.76
2022-11-09T03:23:26.575Z,8.70
2022-11-09T03:25:49.986Z,8.71
2022-11-09T03:28:12.804Z,8.80
2022-11-09T03:30:36.297Z,8.77
2022-11-09T03:33:05.634Z,8.67
2022-11-09T03:35:28.676Z,8.66
2022-11-09T03:37:51.848Z,8.62
2022-11-09T03:40:14.549Z,8.64
2022-11-09T03:42:43.724Z,8.70
2022-11-09T03:45:06.842Z,8.70
2022-11-09T03:47:29.340Z,8.71
2022-11-09T03:49:54.732Z,8.73
2022-11-09T03:52:17.223Z,8.73
2022-11-09T03:54:39.770Z,8.74
2022-11-09T03:57:02.178Z,8.74
2022-11-09T03:59:24.770Z,8.77
2022-11-09T04:01:48.024Z,8.85
2022-11-09T04:04:10.562Z,8.83
2022-11-09T04:06:33.132Z,8.91
2022-11-09T04:08:55.917Z,8.97
2022-11-09T04:11:18.508Z,9.01
2022-11-09T04:13:40.983Z,9.07
2022-11-09T04:16:03.689Z,9.07
2022-11-09T04:18:27.355Z,9.00
2022-11-09T04:20:49.943Z,9.05
2022-11-09T04:23:13.674Z,9.04
2022-11-09T04:25:37.731Z,9.04
2022-11-09T04:28:02.137Z,8.96
2022-11-09T04:30:28.199Z,8.94
2022-11-09T04:32:51.075Z,8.96
2022-11-09T04:35:13.550Z,9.03
2022-11-09T04:37:36.162Z,9.07
2022-11-09T04:39:59.303Z,9.04
2022-11-09T04:42:21.960Z,9.00
2022-11-09T04:44:44.484Z,8.98
2022-11-09T04:47:07.011Z,8.98
2022-11-09T04:49:29.542Z,8.87
2022-11-09T04:51:52.131Z,8.87
2022-11-09T04:54:14.995Z,8.83
2022-11-09T04:56:37.597Z,8.74
2022-11-09T04:59:00.193Z,8.76
2022-11-09T05:01:23.654Z,8.69
2022-11-09T05:03:46.267Z,8.64
2022-11-09T05:06:27.795Z,8.66
2022-11-09T05:08:51.052Z,8.66
2022-11-09T05:11:13.538Z,8.67
2022-11-09T05:13:36.049Z,8.62
2022-11-09T05:16:01.384Z,8.63
2022-11-09T05:18:23.901Z,8.69
2022-11-09T05:20:46.849Z,8.63
2022-11-09T05:23:28.731Z,8.56
2022-11-09T05:25:51.357Z,8.50
2022-11-09T05:28:14.075Z,8.46
2022-11-09T05:30:36.706Z,8.50
2022-11-09T05:32:59.170Z,8.45
2022-11-09T05:35:21.776Z,8.46
2022-11-09T05:37:48.705Z,8.53
2022-11-09T05:40:11.491Z,8.52
2022-11-09T05:42:34.016Z,8.46
2022-11-09T05:44:56.547Z,8.49
2022-11-09T05:47:20.213Z,8.48
2022-11-09T05:49:42.778Z,8.43
2022-11-09T05:52:05.414Z,8.42
2022-11-09T05:54:27.931Z,8.43
2022-11-09T05:56:50.531Z,8.43
2022-11-09T05:59:13.316Z,8.39
2022-11-09T06:01:35.883Z,8.42
2022-11-09T06:03:58.470Z,8.43
2022-11-09T06:06:21.042Z,8.46
2022-11-09T06:08:43.852Z,8.45
2022-11-09T06:11:09.077Z,8.49
2022-11-09T06:13:32.222Z,8.45
2022-11-09T06:15:56.226Z,8.43
2022-11-09T06:18:18.939Z,8.45
2022-11-09T06:20:41.486Z,8.49
2022-11-09T06:23:04.635Z,8.48
2022-11-09T06:25:27.884Z,8.48
2022-11-09T06:27:51.049Z,8.46
2022-11-09T06:30:14.099Z,8.48
2022-11-09T06:32:36.633Z,8.45
2022-11-09T06:34:59.099Z,8.46
2022-11-09T06:37:21.771Z,8.45
2022-11-09T06:39:45.464Z,8.45
2022-11-09T06:42:08.112Z,8.48
2022-11-09T06:44:30.821Z,8.48
2022-11-09T06:46:53.448Z,8.53
2022-11-09T06:49:16.175Z,8.56
2022-11-09T06:51:38.824Z,8.60
2022-11-09T06:54:01.601Z,8.56
2022-11-09T06:56:24.484Z,8.50
2022-11-09T06:58:47.571Z,8.53
2022-11-09T07:01:12.757Z,8.52
2022-11-09T07:03:35.814Z,8.53
2022-11-09T07:05:58.823Z,8.52
2022-11-09T07:08:21.967Z,8.56
2022-11-09T07:10:45.657Z,8.56
2022-11-09T07:13:09.464Z,8.60
2022-11-09T07:15:34.590Z,8.54
2022-11-09T07:17:59.652Z,8.43
2022-11-09T07:20:22.802Z,8.53
2022-11-09T07:22:49.727Z,8.46
2022-11-09T07:25:13.702Z,8.45
2022-11-09T07:27:37.166Z,8.52
2022-11-09T07:30:00.132Z,8.54
2022-11-09T07:32:40.603Z,8.50
2022-11-09T07:35:06.582Z,8.57
2022-11-09T07:37:29.171Z,8.53
2022-11-09T07:39:51.793Z,8.53
2022-11-09T07:42:14.498Z,8.57
2022-11-09T07:44:38.684Z,8.62
2022-11-09T07:47:05.339Z,8.60
2022-11-09T07:49:28.260Z,8.59
2022-11-09T07:51:50.852Z,8.57
2022-11-09T07:54:13.418Z,8.64
2022-11-09T07:56:37.007Z,8.63
2022-11-09T07:58:59.886Z,8.62
2022-11-09T08:01:22.688Z,8.63
2022-11-09T08:03:46.433Z,8.63
2022-11-09T08:06:10.320Z,8.69
2022-11-09T08:08:35.882Z,8.70
2022-11-09T08:10:59.229Z,8.69
2022-11-09T08:13:22.425Z,8.77
2022-11-09T08:15:45.843Z,8.84
2022-11-09T08:18:20.221Z,8.88
2022-11-09T08:20:43.306Z,8.90
2022-11-09T08:23:06.237Z,8.90
2022-11-09T08:25:29.635Z,8.87
2022-11-09T08:27:52.502Z,8.88
2022-11-09T08:30:18.353Z,8.85
2022-11-09T08:32:43.264Z,8.85
2022-11-09T08:35:06.560Z,8.85
2022-11-09T08:37:29.344Z,8.91
2022-11-09T08:39:53.747Z,8.96
2022-11-09T08:42:16.826Z,9.10
2022-11-09T08:44:39.517Z,9.12
2022-11-09T08:47:02.205Z,9.15
2022-11-09T08:49:24.882Z,9.15
2022-11-09T08:51:47.584Z,9.18
2022-11-09T08:54:11.403Z,9.29
2022-11-09T08:56:34.302Z,9.29
2022-11-09T08:58:57.046Z,9.19
2022-11-09T09:01:19.965Z,9.21
2022-11-09T09:03:42.790Z,9.19
2022-11-09T09:06:06.703Z,9.28
2022-11-09T09:08:29.503Z,9.29
2022-11-09T09:10:52.344Z,9.28
2022-11-09T09:13:15.213Z,9.35
2022-11-09T09:15:38.077Z,9.29
2022-11-09T09:18:03.229Z,9.38
2022-11-09T09:20:25.721Z,9.32
2022-11-09T09:22:48.631Z,9.35
2022-11-09T09:25:11.709Z,9.35
2022-11-09T09:27:35.620Z,9.32
2022-11-09T09:30:01.888Z,9.32
2022-11-09T09:32:25.806Z,9.42
2022-11-09T09:34:48.348Z,9.46
2022-11-09T09:37:11.078Z,9.57
2022-11-09T09:39:33.773Z,9.67
2022-11-09T09:41:59.909Z,9.70
2022-11-09T09:44:32.689Z,9.66
2022-11-09T09:47:15.555Z,9.73
2022-11-09T09:49:43.918Z,9.80
2022-11-09T09:53:10.455Z,9.91
2022-11-09T09:55:38.437Z,10.08
2022-11-09T09:58:24.594Z,10.03
2022-11-09T10:00:48.385Z,9.98
2022-11-09T10:03:18.264Z,10.03
2022-11-09T10:06:17.001Z,10.04
2022-11-09T10:09:00.379Z,10.01
2022-11-09T10:11:59.951Z,9.93
2022-11-09T10:14:42.145Z,9.80
2022-11-09T10:17:22.779Z,9.83
2022-11-09T10:20:04.088Z,9.97
2022-11-09T10:22:39.526Z,9.90
2022-11-09T10:25:50.259Z,9.79
2022-11-09T10:28:14.139Z,9.80
2022-11-09T10:30:36.663Z,9.80
2022-11-09T10:33:14.475Z,9.87
2022-11-09T10:35:38.216Z,9.83
2022-11-09T10:38:01.046Z,9.83
2022-11-09T10:40:41.230Z,9.95
2022-11-09T10:43:23.691Z,9.90
2022-11-09T10:46:07.536Z,9.94
2022-11-09T10:48:49.000Z,9.98
2022-11-09T10:51:46.728Z,9.94
2022-11-09T10:54:35.169Z,9.98
2022-11-09T10:57:18.951Z,10.03
2022-11-09T11:00:01.051Z,10.10
2022-11-09T11:02:45.641Z,10.08
2022-11-09T11:05:29.580Z,10.15
2022-11-09T11:08:31.035Z,10.14
2022-11-09T11:11:33.908Z,10.11
2022-11-09T11:14:36.510Z,10.11
2022-11-09T11:17:26.549Z,10.15
2022-11-09T11:20:26.632Z,10.25
2022-11-09T11:23:07.872Z,10.46
2022-11-09T11:25:55.614Z,10.42
2022-11-09T11:28:42.229Z,10.42
2022-11-09T11:31:23.383Z,10.44
2022-11-09T11:34:18.994Z,10.51
2022-11-09T11:37:26.113Z,10.56
2022-11-09T11:40:17.213Z,10.52
2022-11-09T11:43:25.971Z,10.49
2022-11-09T11:46:10.342Z,10.53
2022-11-09T11:49:07.071Z,10.59
2022-11-09T11:51:57.356Z,10.66
2022-11-09T11:55:06.582Z,10.72
2022-11-09T11:57:56.920Z,10.63
2022-11-09T12:00:48.414Z,10.68
2022-11-09T12:03:32.988Z,10.63
2022-11-09T12:06:49.849Z,10.61
2022-11-09T12:10:11.804Z,10.70
2022-11-09T12:13:25.206Z,10.86
2022-11-09T12:16:24.731Z,10.97
2022-11-09T12:19:35.857Z,11.07
2022-11-09T12:22:26.491Z,10.86
2022-11-09T12:25:46.722Z,10.72
2022-11-09T12:28:59.099Z,10.69
2022-11-09T12:32:05.236Z,10.70
2022-11-09T12:35:18.594Z,10.77
2022-11-09T12:38:10.636Z,10.76
2022-11-09T12:41:02.226Z,10.70
2022-11-09T12:43:46.331Z,10.65
2022-11-09T12:46:32.501Z,10.49
2022-11-09T12:49:30.287Z,10.44
2022-11-09T12:52:15.024Z,10.44
2022-11-09T12:55:01.335Z,10.53
2022-11-09T12:57:46.584Z,10.53
2022-11-09T13:00:46.974Z,10.45
2022-11-09T13:03:34.966Z,10.44
2022-11-09T13:06:25.119Z,10.53
2022-11-09T13:09:15.385Z,10.56
2022-11-09T13:11:57.025Z,10.58
2022-11-09T13:14:38.792Z,10.63
2022-11-09T13:17:29.225Z,10.58
2022-11-09T13:20:53.809Z,10.49
2022-11-09T13:24:00.097Z,10.48
2022-11-09T13:26:46.512Z,10.40
2022-11-09T13:29:42.732Z,10.42
2022-11-09T13:32:25.529Z,10.41
2022-11-09T13:35:49.646Z,10.48
2022-11-09T13:38:32.366Z,10.42
2022-11-09T13:41:34.538Z,10.51
2022-11-09T13:44:21.594Z,10.45
2022-11-09T13:47:03.141Z,10.48
2022-11-09T13:49:48.228Z,10.49
2022-11-09T13:52:50.067Z,10.49
2022-11-09T13:55:39.520Z,10.51
2022-11-09T13:58:30.340Z,10.52
2022-11-09T14:01:38.509Z,10.44
2022-11-09T14:04:22.681Z,10.45
2022-11-09T14:07:07.154Z,10.41
2022-11-09T14:09:56.909Z,10.37
2022-11-09T14:12:44.139Z,10.32
2022-11-09T14:16:22.385Z,10.34
2022-11-09T14:19:03.257Z,10.31
2022-11-09T14:22:02.395Z,10.28
2022-11-09T14:24:44.489Z,10.27
2022-11-09T14:27:25.595Z,10.34
2022-11-09T14:30:22.330Z,10.35
2022-11-09T14:33:18.946Z,10.37
2022-11-09T14:36:02.069Z,10.37
2022-11-09T14:38:47.589Z,10.48
2022-11-09T14:41:29.600Z,10.51
2022-11-09T14:44:27.375Z,10.49
2022-11-09T14:47:30.431Z,10.48
2022-11-09T14:50:19.153Z,10.51
2022-11-09T14:53:01.091Z,10.51
2022-11-09T14:55:42.449Z,10.49
2022-11-09T14:58:24.647Z,10.55
2022-11-09T15:01:20.257Z,10.41
2022-11-09T15:04:14.838Z,10.38
2022-11-09T15:07:02.498Z,10.44
2022-11-09T15:09:48.235Z,10.41
2022-11-09T15:12:30.603Z,10.35
2022-11-09T15:15:20.042Z,10.37
2022-11-09T15:18:02.449Z,10.34
2022-11-09T15:20:43.706Z,10.35
2022-11-09T15:23:38.625Z,10.34
2022-11-09T15:26:34.602Z,10.28
2022-11-09T15:29:35.758Z,10.25
2022-11-09T15:32:19.394Z,10.25
2022-11-09T15:35:00.804Z,10.24
2022-11-09T15:37:50.839Z,10.25
2022-11-09T15:40:32.379Z,10.28
2022-11-09T15:43:13.481Z,10.28
2022-11-09T15:45:56.597Z,10.28
2022-11-09T15:48:40.023Z,10.27
2022-11-09T15:51:24.822Z,10.24
2022-11-09T15:54:06.183Z,10.20
2022-11-09T15:56:47.750Z,10.17
2022-11-09T15:59:29.277Z,10.13
2022-11-09T16:02:12.050Z,10.17
2022-11-09T16:04:53.416Z,10.21
2022-11-09T16:07:35.015Z,10.24
2022-11-09T16:10:17.879Z,10.22
2022-11-09T16:12:58.910Z,10.18
2022-11-09T16:15:40.053Z,10.27
2022-11-09T16:18:25.656Z,10.21
2022-11-09T16:21:12.769Z,10.22
2022-11-09T16:23:58.300Z,10.28
2022-11-09T16:26:40.255Z,10.28
2022-11-09T16:29:25.907Z,10.25
2022-11-09T16:32:06.849Z,10.37
2022-11-09T16:35:02.653Z,10.30
2022-11-09T16:37:55.325Z,10.21
2022-11-09T16:40:38.393Z,10.22
2022-11-09T16:43:20.331Z,10.21
2022-11-09T16:46:01.473Z,10.31
2022-11-09T16:48:42.591Z,10.28
2022-11-09T16:51:23.575Z,10.30
2022-11-09T16:54:04.831Z,10.40
2022-11-09T16:56:48.025Z,10.31
2022-11-09T16:59:29.194Z,10.24
2022-11-09T17:02:10.492Z,10.25
2022-11-09T17:04:53.021Z,10.30
2022-11-09T17:07:42.053Z,10.30
2022-11-09T17:10:23.845Z,10.28
2022-11-09T17:13:05.888Z,10.32
2022-11-09T17:15:49.581Z,10.30
2022-11-09T17:18:31.101Z,10.25
2022-11-09T17:21:14.480Z,10.35
2022-11-09T17:23:56.857Z,10.41
2022-11-09T17:26:38.351Z,10.53
2022-11-09T17:29:21.646Z,10.45
2022-11-09T17:32:02.969Z,10.41
2022-11-09T17:34:44.107Z,10.35
2022-11-09T17:37:25.392Z,10.30
2022-11-09T17:40:07.968Z,10.31
2022-11-09T17:42:50.499Z,10.32
2022-11-09T17:45:32.107Z,10.38
2022-11-09T17:48:13.460Z,10.32
2022-11-09T17:50:57.055Z,10.30
2022-11-09T17:53:38.525Z,10.25
2022-11-09T17:56:19.999Z,10.30
2022-11-09T17:59:03.054Z,10.28
2022-11-09T18:01:44.467Z,10.40
2022-11-09T18:04:25.548Z,10.42
2022-11-09T18:07:06.686Z,10.37
2022-11-09T18:09:48.281Z,10.46
2022-11-09T18:12:30.487Z,10.48
2022-11-09T18:15:11.711Z,10.44
2022-11-09T18:17:55.356Z,10.45
2022-11-09T18:20:39.088Z,10.52
2022-11-09T18:23:20.304Z,10.46
2022-11-09T18:26:02.064Z,10.37
2022-11-09T18:28:43.621Z,10.34
2022-11-09T18:31:24.865Z,10.27
2022-11-09T18:34:05.601Z,10.30
2022-11-09T18:36:46.708Z,10.51
2022-11-09T18:39:27.814Z,10.66
2022-11-09T18:42:09.227Z,10.75
2022-11-09T18:44:50.866Z,10.63
2022-11-09T18:47:32.404Z,10.75
2022-11-09T18:50:13.958Z,10.63
2022-11-09T18:52:55.526Z,10.62
2022-11-09T18:55:36.955Z,10.68
2022-11-09T18:58:18.985Z,10.51
2022-11-09T19:01:03.934Z,10.61
2022-11-09T19:03:46.008Z,10.58
2022-11-09T19:06:28.598Z,10.48
2022-11-09T19:09:29.586Z,10.52
2022-11-09T19:12:12.611Z,10.45
2022-11-09T19:14:53.938Z,10.34
2022-11-09T19:17:37.370Z,10.24
2022-11-09T19:20:18.911Z,10.34
2022-11-09T19:23:00.124Z,10.35
2022-11-09T19:25:41.638Z,10.24
2022-11-09T19:28:23.062Z,10.38
2022-11-09T19:31:04.968Z,10.46
2022-11-09T19:33:46.209Z,10.46
2022-11-09T19:36:30.928Z,10.35
2022-11-09T19:39:14.694Z,10.53
2022-11-09T19:41:56.171Z,10.69
2022-11-09T19:44:38.296Z,10.70
2022-11-09T19:47:19.795Z,10.66
2022-11-09T19:50:02.454Z,10.75
2022-11-09T19:52:43.975Z,10.83
2022-11-09T19:55:25.499Z,10.66
2022-11-09T19:58:06.913Z,10.61
2022-11-09T20:00:48.450Z,10.69
2022-11-09T20:03:29.924Z,10.72
2022-11-09T20:06:11.645Z,10.58
2022-11-09T20:08:53.853Z,10.62
2022-11-09T20:11:53.388Z,10.59
2022-11-09T20:14:34.732Z,10.55
2022-11-09T20:17:16.068Z,10.48
2022-11-09T20:19:57.204Z,10.44
2022-11-09T20:22:38.709Z,10.49
2022-11-09T20:25:20.892Z,10.58
2022-11-09T20:28:02.961Z,10.59
2022-11-09T20:30:44.256Z,10.52
2022-11-09T20:33:25.816Z,10.52
2022-11-09T20:36:07.141Z,10.56
2022-11-09T20:38:48.699Z,10.58
2022-11-09T20:41:31.264Z,10.66
2022-11-09T20:44:12.371Z,10.65
2022-11-09T20:46:54.312Z,10.84
2022-11-09T20:49:37.514Z,10.88
2022-11-09T20:52:18.546Z,11.13
2022-11-09T20:54:59.606Z,11.06
2022-11-09T20:57:40.687Z,11.04
2022-11-09T21:00:24.530Z,10.92
2022-11-09T21:03:06.572Z,10.79
2022-11-09T21:05:51.627Z,10.89
2022-11-09T21:08:35.054Z,10.81
2022-11-09T21:11:17.427Z,10.81
2022-11-09T21:13:58.928Z,10.83
2022-11-09T21:16:40.479Z,10.70
2022-11-09T21:19:21.868Z,10.70
2022-11-09T21:22:03.081Z,10.77
2022-11-09T21:25:02.651Z,10.83
2022-11-09T21:28:02.979Z,10.73
2022-11-09T21:30:44.140Z,10.73
2022-11-09T21:33:24.784Z,10.81
2022-11-09T21:36:10.170Z,10.83
2022-11-09T21:38:51.864Z,10.89
2022-11-09T21:41:38.870Z,10.75
2022-11-09T21:44:20.293Z,10.86
2022-11-09T21:47:02.244Z,10.77
2022-11-09T21:49:43.925Z,10.84
2022-11-09T21:52:24.750Z,10.93
2022-11-09T21:55:06.422Z,11.03
2022-11-09T21:57:50.299Z,10.99
2022-11-09T22:00:31.574Z,11.08
2022-11-09T22:03:12.690Z,11.07
2022-11-09T22:05:54.017Z,11.03
2022-11-09T22:08:35.762Z,10.92
2022-11-09T22:11:19.648Z,10.90
2022-11-09T22:14:19.612Z,10.96
2022-11-09T22:17:01.687Z,10.95
2022-11-09T22:20:02.270Z,11.04
2022-11-09T22:22:43.663Z,11.11
2022-11-09T22:25:24.586Z,11.14
2022-11-09T22:28:05.529Z,11.10
2022-11-09T22:30:46.725Z,10.84
2022-11-09T22:33:32.681Z,10.86
2022-11-09T22:36:15.181Z,10.99
2022-11-09T22:38:56.833Z,10.86
2022-11-09T22:41:39.662Z,10.86
2022-11-09T22:44:21.123Z,10.92
2022-11-09T22:47:02.616Z,10.93
2022-11-09T22:49:43.449Z,11.04
2022-11-09T22:52:24.897Z,11.00
2022-11-09T22:55:06.246Z,11.13
2022-11-09T22:57:47.437Z,11.16
2022-11-09T23:00:29.435Z,11.23
2022-11-09T23:03:10.336Z,11.14
2022-11-09T23:05:51.260Z,11.04
2022-11-09T23:08:38.186Z,11.04
2022-11-09T23:11:22.421Z,10.97
2022-11-09T23:14:03.405Z,10.93
2022-11-09T23:16:44.523Z,11.00
2022-11-09T23:19:25.378Z,11.04
2022-11-09T23:22:06.433Z,11.18
2022-11-09T23:25:05.925Z,11.23
2022-11-09T23:27:51.053Z,10.99
2022-11-09T23:30:32.334Z,11.06
2022-11-09T23:33:13.478Z,11.13
2022-11-09T23:35:55.787Z,11.06
2022-11-09T23:38:38.349Z,10.88
2022-11-09T23:41:20.498Z,11.01
2022-11-09T23:44:01.343Z,11.18
2022-11-09T23:46:42.278Z,11.31
2022-11-09T23:49:24.155Z,11.38
2022-11-09T23:52:05.293Z,11.32
2022-11-09T23:54:46.770Z,11.21
2022-11-09T23:57:28.183Z,11.28
